createdAt,value
2019-02-12T00:01:01.249Z,11.87
2019-02-12T00:05:05.862Z,11.00
2019-02-12T00:09:11.040Z,10.57
2019-02-12T00:13:15.223Z,11.80
2019-02-12T00:17:19.636Z,5.13
2019-02-12T00:21:23.835Z,8.93
2019-02-12T00:25:28.223Z,9.37
2019-02-12T00:29:32.658Z,11.33
2019-02-12T00:33:37.013Z,7.97
2019-02-12T00:37:41.410Z,10.37
2019-02-12T00:41:45.756Z,10.20
2019-02-12T00:45:50.165Z,15.13
2019-02-12T00:49:54.545Z,11.03
2019-02-12T00:53:58.822Z,10.23
2019-02-12T00:58:03.167Z,14.83
2019-02-12T01:02:07.537Z,12.67
2019-02-12T01:06:12.001Z,15.33
2019-02-12T01:10:16.355Z,12.53
2019-02-12T01:14:20.653Z,9.10
2019-02-12T01:18:24.947Z,10.53
2019-02-12T01:22:29.116Z,9.43
2019-02-12T01:26:33.352Z,10.07
2019-02-12T01:30:37.539Z,6.97
2019-02-12T01:34:41.810Z,12.67
2019-02-12T01:38:46.025Z,10.93
2019-02-12T01:42:50.157Z,12.90
2019-02-12T01:46:54.358Z,9.20
2019-02-12T01:50:58.953Z,10.03
2019-02-12T01:55:03.128Z,13.73
2019-02-12T01:59:07.317Z,8.53
2019-02-12T02:03:11.538Z,9.83
2019-02-12T02:07:15.863Z,10.17
2019-02-12T02:11:20.062Z,10.67
2019-02-12T02:15:24.302Z,12.07
2019-02-12T02:19:28.567Z,13.57
2019-02-12T02:23:32.890Z,11.73
2019-02-12T02:27:37.301Z,11.77
2019-02-12T02:31:41.679Z,8.70
2019-02-12T02:35:45.945Z,8.37
2019-02-12T02:39:50.303Z,12.00
2019-02-12T02:43:54.632Z,13.47
2019-02-12T02:47:59.010Z,9.40
2019-02-12T02:52:03.428Z,9.67
2019-02-12T02:56:07.928Z,13.23
2019-02-12T03:00:12.329Z,9.33
2019-02-12T03:04:16.809Z,13.87
2019-02-12T03:08:21.143Z,8.77
2019-02-12T03:12:25.555Z,7.33
2019-02-12T03:16:29.790Z,11.50
2019-02-12T03:20:34.000Z,18.00
2019-02-12T03:24:38.353Z,13.90
2019-02-12T03:28:42.542Z,8.67
2019-02-12T03:32:46.744Z,8.30
2019-02-12T03:36:50.970Z,5.87
2019-02-12T03:40:55.155Z,6.53
2019-02-12T03:44:59.413Z,9.13
2019-02-12T03:49:03.692Z,8.20
2019-02-12T03:53:07.882Z,11.33
2019-02-12T03:57:12.003Z,8.87
2019-02-12T04:01:16.200Z,13.10
2019-02-12T04:05:20.438Z,8.90
2019-02-12T04:09:24.622Z,8.97
2019-02-12T04:13:28.838Z,7.93
2019-02-12T04:17:33.097Z,10.40
2019-02-12T04:21:37.485Z,6.47
2019-02-12T04:25:41.832Z,11.17
2019-02-12T04:29:46.526Z,11.07
2019-02-12T04:33:50.914Z,13.77
2019-02-12T04:37:55.678Z,10.87
2019-02-12T04:42:00.044Z,11.40
2019-02-12T04:46:04.407Z,10.03
2019-02-12T04:50:09.781Z,7.80
2019-02-12T04:54:15.915Z,9.03
2019-02-12T04:58:20.086Z,8.30
2019-02-12T05:02:24.320Z,8.17
2019-02-12T05:06:28.516Z,6.07
2019-02-12T05:10:35.007Z,6.30
2019-02-12T05:14:39.312Z,10.23
2019-02-12T05:18:43.508Z,10.97
2019-02-12T05:22:47.770Z,6.90
2019-02-12T05:26:52.020Z,10.67
2019-02-12T05:30:56.309Z,7.10
2019-02-12T05:35:00.414Z,7.80
2019-02-12T05:39:05.183Z,10.57
2019-02-12T05:43:09.389Z,10.87
2019-02-12T05:47:13.627Z,8.73
2019-02-12T05:51:17.825Z,8.93
2019-02-12T05:55:22.353Z,7.50
2019-02-12T05:59:26.814Z,10.63
2019-02-12T06:03:31.110Z,7.73
2019-02-12T06:07:35.363Z,5.60
2019-02-12T06:11:39.648Z,6.83
2019-02-12T06:15:44.009Z,10.60
2019-02-12T06:19:48.402Z,8.40
2019-02-12T06:23:52.779Z,5.60
2019-02-12T06:27:57.186Z,9.83
2019-02-12T06:32:01.904Z,10.57
2019-02-12T06:36:06.358Z,12.67
2019-02-12T06:40:10.784Z,6.20
2019-02-12T06:44:15.177Z,7.73
2019-02-12T06:48:19.780Z,8.73
2019-02-12T06:52:24.272Z,7.30
2019-02-12T06:56:28.768Z,5.40
2019-02-12T07:00:33.373Z,11.70
2019-02-12T07:04:37.743Z,8.50
2019-02-12T07:09:10.325Z,10.47
2019-02-12T07:13:29.088Z,4.97
2019-02-12T07:18:08.903Z,13.23
2019-02-12T07:22:47.042Z,7.07
2019-02-12T07:27:17.666Z,9.37
2019-02-12T07:32:12.034Z,4.60
2019-02-12T07:37:09.200Z,10.07
2019-02-12T07:41:38.493Z,7.93
2019-02-12T07:46:22.761Z,8.40
2019-02-12T07:50:49.078Z,14.80
2019-02-12T07:55:30.019Z,6.37
2019-02-12T08:00:24.749Z,7.23
2019-02-12T08:05:06.771Z,7.80
2019-02-12T08:09:47.755Z,10.40
2019-02-12T08:14:23.517Z,10.13
2019-02-12T08:18:47.972Z,11.17
2019-02-12T08:23:51.009Z,10.57
2019-02-12T08:28:39.108Z,10.13
2019-02-12T08:33:07.492Z,7.83
2019-02-12T08:37:38.911Z,7.87
2019-02-12T08:42:08.506Z,9.77
2019-02-12T08:46:28.798Z,9.73
2019-02-12T08:50:47.035Z,9.80
2019-02-12T08:55:11.986Z,11.90
2019-02-12T08:59:47.295Z,6.20
2019-02-12T09:04:29.312Z,11.83
2019-02-12T09:09:05.539Z,7.23
2019-02-12T09:13:43.001Z,13.40
2019-02-12T09:18:02.000Z,10.97
2019-02-12T09:22:33.021Z,10.47
2019-02-12T09:27:26.161Z,8.30
2019-02-12T09:32:13.070Z,13.87
2019-02-12T09:37:07.349Z,16.97
2019-02-12T09:41:41.473Z,7.97
2019-02-12T09:46:16.164Z,14.07
2019-02-12T09:50:49.866Z,8.50
2019-02-12T09:55:29.451Z,9.17
2019-02-12T10:00:24.208Z,9.63
2019-02-12T10:05:04.883Z,7.33
2019-02-12T10:09:31.950Z,6.63
2019-02-12T10:14:05.836Z,6.67
2019-02-12T10:19:04.126Z,5.07
2019-02-12T10:23:51.050Z,7.53
2019-02-12T10:28:50.631Z,7.17
2019-02-12T10:32:54.951Z,7.40
2019-02-12T10:37:02.055Z,6.47
2019-02-12T10:41:06.594Z,8.43
2019-02-12T10:45:11.319Z,11.77
2019-02-12T10:49:15.631Z,9.53
2019-02-12T10:53:20.034Z,10.57
2019-02-12T10:57:24.349Z,10.63
2019-02-12T11:01:28.662Z,9.87
2019-02-12T11:05:32.949Z,9.30
2019-02-12T11:09:37.651Z,10.70
2019-02-12T11:13:41.977Z,12.10
2019-02-12T11:17:47.451Z,8.17
2019-02-12T11:21:51.494Z,13.53
2019-02-12T11:25:55.729Z,14.10
2019-02-12T11:30:00.071Z,10.53
2019-02-12T11:34:04.452Z,10.03
2019-02-12T11:38:09.530Z,9.97
2019-02-12T11:42:13.865Z,7.77
2019-02-12T11:46:18.148Z,11.37
2019-02-12T11:50:22.389Z,11.07
2019-02-12T11:54:26.653Z,17.13
2019-02-12T11:58:30.934Z,19.77
2019-02-12T12:02:41.810Z,17.13
2019-02-12T12:06:41.154Z,8.63
2019-02-12T12:10:45.393Z,13.17
2019-02-12T12:14:49.629Z,10.33
2019-02-12T12:18:54.183Z,14.50
2019-02-12T12:23:00.844Z,11.83
2019-02-12T12:27:07.013Z,12.27
2019-02-12T12:31:11.384Z,8.70
2019-02-12T12:35:15.914Z,5.83
2019-02-12T12:39:20.531Z,9.97
2019-02-12T12:43:25.335Z,11.33
2019-02-12T12:47:29.962Z,8.70
2019-02-12T12:51:53.336Z,11.13
2019-02-12T12:55:57.661Z,16.60
2019-02-12T13:00:03.828Z,13.13
2019-02-12T13:04:08.247Z,9.73
2019-02-12T13:08:12.557Z,10.23
2019-02-12T13:12:16.763Z,7.43
2019-02-12T13:16:21.034Z,13.57
2019-02-12T13:20:25.350Z,10.77
2019-02-12T13:24:29.911Z,13.20
2019-02-12T13:28:34.247Z,13.80
2019-02-12T13:32:38.571Z,10.60
2019-02-12T13:36:42.988Z,12.37
2019-02-12T13:40:47.728Z,14.07
2019-02-12T13:44:52.260Z,9.73
2019-02-12T13:48:56.845Z,10.30
2019-02-12T13:53:01.590Z,13.60
2019-02-12T13:57:06.000Z,11.37
2019-02-12T14:01:10.363Z,7.87
2019-02-12T14:05:16.311Z,15.23
2019-02-12T14:09:20.815Z,17.70
2019-02-12T14:13:25.460Z,13.43
2019-02-12T14:17:29.965Z,12.13
2019-02-12T14:21:35.441Z,13.23
2019-02-12T14:25:39.771Z,13.60
2019-02-12T14:29:44.131Z,17.50
2019-02-12T14:33:48.625Z,21.33
2019-02-12T14:37:53.045Z,16.23
2019-02-12T14:41:57.440Z,16.60
2019-02-12T14:46:03.399Z,12.10
2019-02-12T14:50:09.144Z,18.83
2019-02-12T14:54:13.516Z,20.43
2019-02-12T14:58:17.839Z,14.43
2019-02-12T15:02:22.267Z,18.87
2019-02-12T15:06:26.523Z,16.00
2019-02-12T15:10:30.811Z,14.27
2019-02-12T15:14:35.114Z,14.07
2019-02-12T15:18:39.426Z,15.70
2019-02-12T15:22:43.619Z,16.10
2019-02-12T15:26:48.016Z,17.10
2019-02-12T15:30:52.394Z,15.57
2019-02-12T15:34:56.751Z,21.80
2019-02-12T15:39:01.338Z,16.93
2019-02-12T15:43:05.540Z,15.40
2019-02-12T15:47:09.823Z,15.83
2019-02-12T15:51:14.101Z,13.87
2019-02-12T15:55:18.391Z,14.87
2019-02-12T15:59:22.794Z,16.93
2019-02-12T16:03:26.958Z,14.37
2019-02-12T16:07:31.180Z,23.47
2019-02-12T16:11:35.438Z,14.17
2019-02-12T16:15:39.702Z,17.33
2019-02-12T16:19:45.200Z,11.50
2019-02-12T16:23:49.838Z,12.17
2019-02-12T16:27:54.175Z,24.83
2019-02-12T16:31:58.419Z,19.30
2019-02-12T16:36:02.631Z,17.83
2019-02-12T16:40:07.935Z,16.47
2019-02-12T16:44:12.291Z,17.17
2019-02-12T16:48:16.527Z,19.53
2019-02-12T16:52:21.242Z,16.63
2019-02-12T16:56:25.696Z,19.10
2019-02-12T17:00:30.067Z,17.53
2019-02-12T17:04:34.278Z,18.47
2019-02-12T17:08:38.563Z,15.17
2019-02-12T17:12:42.875Z,22.13
2019-02-12T17:16:47.360Z,24.60
2019-02-12T17:20:51.714Z,20.53
2019-02-12T17:24:56.141Z,22.83
2019-02-12T17:29:00.735Z,20.60
2019-02-12T17:33:05.143Z,18.93
2019-02-12T17:37:09.540Z,23.73
2019-02-12T17:41:14.493Z,19.63
2019-02-12T17:45:19.269Z,18.00
2019-02-12T17:49:23.889Z,21.70
2019-02-12T17:53:29.252Z,23.60
2019-02-12T17:57:33.563Z,19.90
2019-02-12T18:01:37.892Z,19.67
2019-02-12T18:05:42.298Z,22.00
2019-02-12T18:09:46.467Z,25.10
2019-02-12T18:13:50.899Z,21.07
2019-02-12T18:17:55.184Z,25.20
2019-02-12T18:21:59.532Z,27.60
2019-02-12T18:26:04.054Z,19.67
2019-02-12T18:30:10.704Z,21.87
2019-02-12T18:34:15.391Z,21.47
2019-02-12T18:38:22.005Z,21.60
2019-02-12T18:42:26.730Z,19.80
2019-02-12T18:46:31.452Z,21.27
2019-02-12T18:50:36.883Z,19.70
2019-02-12T18:54:41.735Z,19.60
2019-02-12T18:58:46.714Z,26.67
2019-02-12T19:02:51.582Z,26.17
2019-02-12T19:06:56.314Z,20.63
2019-02-12T19:11:00.803Z,22.53
2019-02-12T19:15:06.419Z,21.37
2019-02-12T19:19:11.065Z,23.93
2019-02-12T19:23:15.640Z,25.23
2019-02-12T19:27:22.167Z,18.87
2019-02-12T19:31:36.189Z,23.43
2019-02-12T19:35:40.863Z,24.60
2019-02-12T19:39:45.356Z,22.10
2019-02-12T19:43:54.904Z,24.87
2019-02-12T19:47:59.284Z,26.10
2019-02-12T19:52:03.769Z,21.93
2019-02-12T19:56:08.292Z,25.47
2019-02-12T20:00:19.495Z,24.70
2019-02-12T20:04:24.050Z,29.43
2019-02-12T20:08:28.590Z,29.27
2019-02-12T20:12:33.497Z,27.90
2019-02-12T20:16:38.162Z,29.63
2019-02-12T20:20:42.657Z,32.07
2019-02-12T20:24:47.065Z,31.27
2019-02-12T20:28:51.531Z,29.23
2019-02-12T20:32:55.982Z,28.93
2019-02-12T20:37:00.505Z,28.10
2019-02-12T20:41:04.939Z,22.97
2019-02-12T20:45:11.653Z,27.00
2019-02-12T20:49:16.152Z,26.27
2019-02-12T20:53:20.666Z,28.17
2019-02-12T20:57:25.243Z,25.77
2019-02-12T21:01:29.844Z,27.83
2019-02-12T21:05:34.454Z,25.50
2019-02-12T21:09:39.044Z,27.07
2019-02-12T21:13:43.587Z,30.87
2019-02-12T21:17:48.041Z,32.53
2019-02-12T21:21:52.588Z,28.33
2019-02-12T21:25:58.908Z,28.57
2019-02-12T21:30:03.451Z,26.97
2019-02-12T21:34:08.706Z,28.43
2019-02-12T21:38:17.188Z,24.63
2019-02-12T21:42:21.686Z,29.70
2019-02-12T21:46:26.629Z,27.43
2019-02-12T21:50:31.664Z,28.03
2019-02-12T21:54:36.246Z,34.50
2019-02-12T21:58:41.596Z,32.80
2019-02-12T22:02:47.343Z,31.50
2019-02-12T22:06:55.081Z,37.80
2019-02-12T22:10:59.762Z,34.60
2019-02-12T22:15:04.703Z,27.40
2019-02-12T22:19:09.627Z,33.20
2019-02-12T22:23:14.355Z,34.10
2019-02-12T22:27:18.995Z,34.27
2019-02-12T22:31:23.600Z,34.93
2019-02-12T22:35:28.075Z,31.83
2019-02-12T22:39:32.561Z,31.17
2019-02-12T22:43:37.237Z,33.17
2019-02-12T22:47:41.789Z,36.33
2019-02-12T22:51:46.187Z,30.83
2019-02-12T22:55:50.600Z,35.70
2019-02-12T22:59:54.883Z,30.43
2019-02-12T23:03:59.232Z,33.30
2019-02-12T23:08:03.542Z,33.00
2019-02-12T23:12:11.414Z,31.33
2019-02-12T23:16:15.715Z,34.87
2019-02-12T23:20:20.097Z,31.10
2019-02-12T23:24:24.489Z,28.33
2019-02-12T23:28:28.717Z,35.63
2019-02-12T23:32:32.867Z,29.13
2019-02-12T23:36:37.247Z,32.93
2019-02-12T23:40:41.412Z,31.93
2019-02-12T23:44:45.626Z,35.73
2019-02-12T23:48:49.851Z,33.00
2019-02-12T23:52:54.132Z,34.17
2019-02-12T23:56:58.342Z,33.23
